createdAt,value
2023-03-16T00:01:26.493Z,85.79
2023-03-16T00:06:28.349Z,86.57
2023-03-16T00:11:32.772Z,86.79
2023-03-16T00:16:35.544Z,86.51
2023-03-16T00:21:37.333Z,86.38
2023-03-16T00:26:39.080Z,86.46
2023-03-16T00:31:44.115Z,86.65
2023-03-16T00:36:45.931Z,87.62
2023-03-16T00:41:47.979Z,87.90
2023-03-16T00:46:49.636Z,88.40
2023-03-16T00:51:52.218Z,88.13
2023-03-16T00:56:54.682Z,88.47
2023-03-16T01:01:56.462Z,88.47
2023-03-16T01:06:58.389Z,88.44
2023-03-16T01:12:00.032Z,89.00
2023-03-16T01:17:06.559Z,88.51
2023-03-16T01:22:09.878Z,88.91
2023-03-16T01:27:13.891Z,88.97
2023-03-16T01:32:16.334Z,88.91
2023-03-16T01:37:18.267Z,88.91
2023-03-16T01:42:29.294Z,88.18
2023-03-16T01:47:38.356Z,89.28
2023-03-16T01:52:43.058Z,88.60
2023-03-16T01:57:46.965Z,88.87
2023-03-16T02:02:58.569Z,89.60
2023-03-16T02:08:10.581Z,89.45
2023-03-16T02:13:12.661Z,90.24
2023-03-16T02:18:15.104Z,89.70
2023-03-16T02:23:19.520Z,89.82
2023-03-16T02:28:31.190Z,90.61
2023-03-16T02:33:33.969Z,90.86
2023-03-16T02:38:36.145Z,91.18
2023-03-16T02:43:41.414Z,90.23
2023-03-16T02:49:08.110Z,90.79
2023-03-16T02:54:11.987Z,89.83
2023-03-16T02:59:14.917Z,89.85
2023-03-16T03:04:17.189Z,89.06
2023-03-16T03:09:19.564Z,89.32
2023-03-16T03:14:23.069Z,90.24
2023-03-16T03:19:26.098Z,90.59
2023-03-16T03:24:28.208Z,91.15
2023-03-16T03:29:34.592Z,90.31
2023-03-16T03:34:36.593Z,89.19
2023-03-16T03:39:40.438Z,89.06
2023-03-16T03:44:42.479Z,88.94
2023-03-16T03:49:45.515Z,89.16
2023-03-16T03:54:47.657Z,88.64
2023-03-16T03:59:51.647Z,88.91
2023-03-16T04:05:22.628Z,88.77
2023-03-16T04:10:30.359Z,89.07
2023-03-16T04:15:33.686Z,89.50
2023-03-16T04:20:44.901Z,90.21
2023-03-16T04:25:52.691Z,89.63
2023-03-16T04:31:01.950Z,89.45
2023-03-16T04:36:10.686Z,90.26
2023-03-16T04:41:13.420Z,90.19
2023-03-16T04:46:24.889Z,90.08
2023-03-16T04:51:27.705Z,90.57
2023-03-16T04:56:48.774Z,90.36
2023-03-16T05:02:04.110Z,90.54
2023-03-16T05:07:06.627Z,90.18
2023-03-16T05:12:14.618Z,89.95
2023-03-16T05:17:22.246Z,89.36
2023-03-16T05:22:25.853Z,90.18
2023-03-16T05:27:50.681Z,89.89
2023-03-16T05:33:00.169Z,90.01
2023-03-16T05:38:03.392Z,89.92
2023-03-16T05:43:09.462Z,89.74
2023-03-16T05:48:17.688Z,89.54
2023-03-16T05:53:28.844Z,89.22
2023-03-16T05:58:35.723Z,89.73
2023-03-16T06:03:41.926Z,89.47
2023-03-16T06:08:47.605Z,89.73
2023-03-16T06:13:49.802Z,89.13
2023-03-16T06:18:52.355Z,89.03
2023-03-16T06:23:54.581Z,89.33
2023-03-16T06:28:56.483Z,89.11
2023-03-16T06:33:59.753Z,87.80
2023-03-16T06:39:01.918Z,84.77
2023-03-16T06:44:15.841Z,82.05
2023-03-16T06:49:28.267Z,81.58
2023-03-16T06:54:32.460Z,80.76
2023-03-16T06:59:35.197Z,80.79
2023-03-16T07:04:36.868Z,80.22
2023-03-16T07:09:41.681Z,80.16
2023-03-16T07:14:43.861Z,80.56
2023-03-16T07:19:47.471Z,80.27
2023-03-16T07:24:56.072Z,79.57
2023-03-16T07:30:00.403Z,80.81
2023-03-16T07:35:02.203Z,80.00
2023-03-16T07:40:09.211Z,78.50
2023-03-16T07:45:12.383Z,78.46
2023-03-16T07:50:16.940Z,79.12
2023-03-16T07:55:21.047Z,76.98
2023-03-16T08:00:25.905Z,76.94
2023-03-16T08:05:28.058Z,76.73
2023-03-16T08:10:34.662Z,75.99
2023-03-16T08:15:46.430Z,74.93
2023-03-16T08:20:57.413Z,73.67
2023-03-16T08:26:01.126Z,74.94
2023-03-16T08:31:03.126Z,72.99
2023-03-16T08:36:28.963Z,73.60
2023-03-16T08:41:33.079Z,72.85
2023-03-16T08:46:40.686Z,71.50
2023-03-16T08:51:44.527Z,70.20
2023-03-16T08:56:46.595Z,69.35
2023-03-16T09:01:48.342Z,68.63
2023-03-16T09:07:07.894Z,68.97
2023-03-16T09:12:12.365Z,66.95
2023-03-16T09:17:14.021Z,65.56
2023-03-16T09:22:16.862Z,65.27
2023-03-16T09:27:19.022Z,64.04
2023-03-16T09:32:21.153Z,62.95
2023-03-16T09:37:23.458Z,62.60
2023-03-16T09:42:37.773Z,61.80
2023-03-16T09:47:40.623Z,60.66
2023-03-16T09:52:42.182Z,59.42
2023-03-16T09:57:46.095Z,58.22
2023-03-16T10:03:17.784Z,57.62
2023-03-16T10:08:26.678Z,57.32
2023-03-16T10:13:50.406Z,58.04
2023-03-16T10:18:58.941Z,59.26
2023-03-16T10:24:02.432Z,57.50
2023-03-16T10:29:12.744Z,55.98
2023-03-16T10:34:15.304Z,55.87
2023-03-16T10:39:17.835Z,55.68
2023-03-16T10:44:24.705Z,54.49
2023-03-16T10:49:28.534Z,54.73
2023-03-16T10:54:40.711Z,56.58
2023-03-16T10:59:49.858Z,54.19
2023-03-16T11:04:53.170Z,54.06
2023-03-16T11:09:59.811Z,54.76
2023-03-16T11:15:07.474Z,52.14
2023-03-16T11:20:17.982Z,51.33
2023-03-16T11:25:31.168Z,51.70
2023-03-16T11:30:40.524Z,51.39
2023-03-16T11:35:56.605Z,52.34
2023-03-16T11:41:03.831Z,49.85
2023-03-16T11:46:23.065Z,51.83
2023-03-16T11:51:36.135Z,49.15
2023-03-16T11:56:43.418Z,47.16
2023-03-16T12:02:03.461Z,46.24
2023-03-16T12:07:20.576Z,46.42
2023-03-16T12:12:25.013Z,46.97
2023-03-16T12:17:30.628Z,47.90
2023-03-16T12:22:37.357Z,47.56
2023-03-16T12:27:38.963Z,47.41
2023-03-16T12:33:21.788Z,47.71
2023-03-16T12:38:46.952Z,48.14
2023-03-16T12:44:12.658Z,47.40
2023-03-16T12:49:15.109Z,47.36
2023-03-16T12:54:25.419Z,47.34
2023-03-16T12:59:38.280Z,47.11
2023-03-16T13:04:42.526Z,45.05
2023-03-16T13:09:49.653Z,44.08
2023-03-16T13:14:54.879Z,43.72
2023-03-16T13:20:01.081Z,42.88
2023-03-16T13:25:23.459Z,42.16
2023-03-16T13:30:33.093Z,42.19
2023-03-16T13:35:39.319Z,40.60
2023-03-16T13:40:46.411Z,41.88
2023-03-16T13:45:48.469Z,42.77
2023-03-16T13:50:58.794Z,42.12
2023-03-16T13:56:04.395Z,42.85
2023-03-16T14:01:26.737Z,43.22
2023-03-16T14:06:31.457Z,41.22
2023-03-16T14:11:33.182Z,40.67
2023-03-16T14:16:36.864Z,42.55
2023-03-16T14:21:49.752Z,42.86
2023-03-16T14:26:53.846Z,41.49
2023-03-16T14:31:55.602Z,42.56
2023-03-16T14:37:10.444Z,42.95
2023-03-16T14:42:28.881Z,42.28
2023-03-16T14:47:41.626Z,43.09
2023-03-16T14:52:45.678Z,42.92
2023-03-16T14:57:47.342Z,44.41
2023-03-16T15:02:59.123Z,44.21
2023-03-16T15:08:00.919Z,44.16
2023-03-16T15:13:13.013Z,45.51
2023-03-16T15:18:14.732Z,45.94
2023-03-16T15:23:17.164Z,45.80
2023-03-16T15:28:21.037Z,47.56
2023-03-16T15:33:23.464Z,47.64
2023-03-16T15:38:36.773Z,48.26
2023-03-16T15:43:39.570Z,48.97
2023-03-16T15:48:41.308Z,48.42
2023-03-16T15:54:08.547Z,48.40
2023-03-16T15:59:16.967Z,47.88
2023-03-16T16:04:21.091Z,48.74
2023-03-16T16:09:22.997Z,48.94
2023-03-16T16:14:26.621Z,49.39
2023-03-16T16:19:30.043Z,48.83
2023-03-16T16:24:31.704Z,50.13
2023-03-16T16:29:35.060Z,51.63
2023-03-16T16:34:36.708Z,52.65
2023-03-16T16:39:38.373Z,53.50
2023-03-16T16:44:40.061Z,53.25
2023-03-16T16:49:41.729Z,53.23
2023-03-16T16:54:43.384Z,53.05
2023-03-16T16:59:47.083Z,53.73
2023-03-16T17:04:50.735Z,54.23
2023-03-16T17:09:52.497Z,54.13
2023-03-16T17:14:54.643Z,54.04
2023-03-16T17:19:56.314Z,54.47
2023-03-16T17:24:58.613Z,54.98
2023-03-16T17:30:00.743Z,54.73
2023-03-16T17:35:02.472Z,55.67
2023-03-16T17:40:04.493Z,56.54
2023-03-16T17:45:09.851Z,56.71
2023-03-16T17:50:26.782Z,56.90
2023-03-16T17:55:28.680Z,57.37
2023-03-16T18:00:32.711Z,56.83
2023-03-16T18:05:35.587Z,56.51
2023-03-16T18:10:37.412Z,56.63
2023-03-16T18:15:39.867Z,57.39
2023-03-16T18:20:41.660Z,57.49
2023-03-16T18:25:43.955Z,57.18
2023-03-16T18:30:47.513Z,57.55
2023-03-16T18:35:51.059Z,56.24
2023-03-16T18:40:52.760Z,56.20
2023-03-16T18:45:55.033Z,56.56
2023-03-16T18:50:57.124Z,56.33
2023-03-16T18:55:58.821Z,56.32
2023-03-16T19:01:01.414Z,57.02
2023-03-16T19:06:03.298Z,56.90
2023-03-16T19:11:05.053Z,57.00
2023-03-16T19:16:10.307Z,57.41
2023-03-16T19:21:18.440Z,57.84
2023-03-16T19:26:20.098Z,58.19
2023-03-16T19:31:24.326Z,58.66
2023-03-16T19:36:30.666Z,58.56
2023-03-16T19:41:34.881Z,59.01
2023-03-16T19:46:36.582Z,60.00
2023-03-16T19:51:38.202Z,59.62
2023-03-16T19:56:40.164Z,60.15
2023-03-16T20:01:42.112Z,60.17
2023-03-16T20:06:43.898Z,60.23
2023-03-16T20:11:47.094Z,60.67
2023-03-16T20:16:49.222Z,60.48
2023-03-16T20:21:51.363Z,60.25
2023-03-16T20:26:54.083Z,60.89
2023-03-16T20:31:56.200Z,60.14
2023-03-16T20:36:58.068Z,60.35
2023-03-16T20:41:59.762Z,60.68
2023-03-16T20:47:01.434Z,60.74
2023-03-16T20:52:03.989Z,60.74
2023-03-16T20:57:24.462Z,61.41
2023-03-16T21:02:32.088Z,61.56
2023-03-16T21:07:33.995Z,62.05
2023-03-16T21:12:36.448Z,61.42
2023-03-16T21:17:39.625Z,61.31
2023-03-16T21:22:41.465Z,61.60
2023-03-16T21:27:43.244Z,61.40
2023-03-16T21:32:44.968Z,60.45
2023-03-16T21:37:46.652Z,60.49
2023-03-16T21:42:48.641Z,60.09
2023-03-16T21:47:50.284Z,60.12
2023-03-16T21:52:52.516Z,60.05
2023-03-16T21:57:54.407Z,60.42
2023-03-16T22:02:58.354Z,60.27
2023-03-16T22:08:02.020Z,60.14
2023-03-16T22:13:03.833Z,60.23
2023-03-16T22:18:10.950Z,60.41
2023-03-16T22:23:23.092Z,60.05
2023-03-16T22:28:25.832Z,60.16
2023-03-16T22:33:30.061Z,59.84
2023-03-16T22:38:31.884Z,60.59
2023-03-16T22:43:36.014Z,60.73
2023-03-16T22:48:37.639Z,60.27
2023-03-16T22:53:41.850Z,60.46
2023-03-16T22:58:45.875Z,60.15
2023-03-16T23:03:50.036Z,60.20
2023-03-16T23:08:51.759Z,59.58
2023-03-16T23:13:54.234Z,59.58
2023-03-16T23:18:56.499Z,58.72
2023-03-16T23:24:04.108Z,58.58
2023-03-16T23:29:06.659Z,58.71
2023-03-16T23:34:17.120Z,57.87
2023-03-16T23:39:20.240Z,56.83
2023-03-16T23:44:25.223Z,56.86
2023-03-16T23:49:31.105Z,56.06
2023-03-16T23:54:33.322Z,55.44
2023-03-16T23:59:34.982Z,55.27
